createdAt,value
2022-10-14T00:02:05.572Z,98725.77
2022-10-14T00:04:32.918Z,98722.95
2022-10-14T00:06:59.410Z,98724.79
2022-10-14T00:09:26.059Z,98714.94
2022-10-14T00:11:52.622Z,98714.70
2022-10-14T00:14:21.593Z,98715.61
2022-10-14T00:16:49.484Z,98714.13
2022-10-14T00:19:16.110Z,98708.05
2022-10-14T00:21:45.112Z,98701.95
2022-10-14T00:24:13.183Z,98695.85
2022-10-14T00:26:40.849Z,98692.34
2022-10-14T00:29:11.722Z,98689.18
2022-10-14T00:31:38.335Z,98683.83
2022-10-14T00:34:05.288Z,98687.75
2022-10-14T00:36:31.841Z,98689.45
2022-10-14T00:38:58.477Z,98689.09
2022-10-14T00:41:31.568Z,98692.13
2022-10-14T00:44:26.987Z,98692.58
2022-10-14T00:46:55.267Z,98689.83
2022-10-14T00:49:26.106Z,98691.73
2022-10-14T00:51:58.279Z,98691.55
2022-10-14T00:54:32.095Z,98690.02
2022-10-14T00:56:58.925Z,98687.02
2022-10-14T00:59:25.708Z,98683.73
2022-10-14T01:01:52.344Z,98678.33
2022-10-14T01:04:18.910Z,98674.16
2022-10-14T01:07:04.052Z,98674.10
2022-10-14T01:10:00.638Z,98677.95
2022-10-14T01:13:09.228Z,98676.23
2022-10-14T01:15:45.186Z,98673.70
2022-10-14T01:18:32.520Z,98668.75
2022-10-14T01:21:11.914Z,98669.88
2022-10-14T01:23:47.511Z,98670.48
2022-10-14T01:26:40.470Z,98671.41
2022-10-14T01:29:44.897Z,98666.81
2022-10-14T01:32:19.811Z,98663.65
2022-10-14T01:35:01.429Z,98658.94
2022-10-14T01:37:31.392Z,98653.31
2022-10-14T01:40:03.738Z,98653.36
2022-10-14T01:42:35.140Z,98654.82
2022-10-14T01:45:05.322Z,98651.09
2022-10-14T01:47:35.011Z,98648.61
2022-10-14T01:50:13.545Z,98652.33
2022-10-14T01:53:11.828Z,98650.15
2022-10-14T01:55:43.293Z,98647.77
2022-10-14T01:58:11.056Z,98646.36
2022-10-14T02:00:37.799Z,98648.44
2022-10-14T02:03:04.314Z,98646.23
2022-10-14T02:05:43.258Z,98649.86
2022-10-14T02:08:19.023Z,98648.15
2022-10-14T02:11:05.842Z,98646.79
2022-10-14T02:13:56.550Z,98644.73
2022-10-14T02:16:44.952Z,98648.02
2022-10-14T02:19:28.459Z,98644.80
2022-10-14T02:22:08.608Z,98641.14
2022-10-14T02:24:40.482Z,98642.80
2022-10-14T02:27:11.726Z,98646.85
2022-10-14T02:29:40.412Z,98643.33
2022-10-14T02:32:08.746Z,98641.38
2022-10-14T02:34:37.901Z,98644.30
2022-10-14T02:37:05.361Z,98642.23
2022-10-14T02:39:40.094Z,98643.61
2022-10-14T02:42:06.948Z,98638.59
2022-10-14T02:44:33.386Z,98637.48
2022-10-14T02:46:59.925Z,98636.63
2022-10-14T02:49:26.466Z,98634.52
2022-10-14T02:51:52.878Z,98633.83
2022-10-14T02:54:19.446Z,98633.50
2022-10-14T02:56:45.863Z,98632.29
2022-10-14T02:59:12.301Z,98632.78
2022-10-14T03:01:38.978Z,98630.52
2022-10-14T03:04:05.510Z,98633.51
2022-10-14T03:06:31.943Z,98631.29
2022-10-14T03:08:58.492Z,98628.23
2022-10-14T03:11:25.027Z,98630.57
2022-10-14T03:13:51.466Z,98630.20
2022-10-14T03:16:18.007Z,98631.91
2022-10-14T03:18:44.438Z,98634.29
2022-10-14T03:21:10.841Z,98635.69
2022-10-14T03:23:37.531Z,98632.11
2022-10-14T03:26:04.076Z,98637.41
2022-10-14T03:28:30.551Z,98637.95
2022-10-14T03:30:57.147Z,98638.11
2022-10-14T03:33:25.999Z,98638.94
2022-10-14T03:35:53.503Z,98640.55
2022-10-14T03:38:20.332Z,98639.05
2022-10-14T03:40:46.740Z,98638.75
2022-10-14T03:43:13.199Z,98632.25
2022-10-14T03:45:39.769Z,98632.36
2022-10-14T03:48:06.421Z,98626.32
2022-10-14T03:50:32.832Z,98624.63
2022-10-14T03:52:59.290Z,98622.26
2022-10-14T03:55:25.829Z,98624.36
2022-10-14T03:57:52.371Z,98626.48
2022-10-14T04:00:19.051Z,98627.92
2022-10-14T04:02:45.555Z,98627.01
2022-10-14T04:05:12.016Z,98626.08
2022-10-14T04:07:38.554Z,98621.13
2022-10-14T04:10:06.529Z,98624.52
2022-10-14T04:12:33.262Z,98623.14
2022-10-14T04:14:59.793Z,98619.71
2022-10-14T04:17:26.644Z,98618.23
2022-10-14T04:19:53.577Z,98616.77
2022-10-14T04:22:20.417Z,98614.30
2022-10-14T04:24:47.291Z,98611.98
2022-10-14T04:27:13.825Z,98609.64
2022-10-14T04:29:40.363Z,98611.28
2022-10-14T04:32:06.910Z,98609.48
2022-10-14T04:34:33.445Z,98608.68
2022-10-14T04:37:00.189Z,98609.25
2022-10-14T04:39:26.807Z,98609.08
2022-10-14T04:41:53.376Z,98605.55
2022-10-14T04:44:19.920Z,98606.63
2022-10-14T04:46:46.399Z,98602.73
2022-10-14T04:49:12.856Z,98602.94
2022-10-14T04:51:39.451Z,98601.23
2022-10-14T04:54:05.994Z,98600.86
2022-10-14T04:56:32.519Z,98601.19
2022-10-14T04:58:59.049Z,98601.34
2022-10-14T05:01:28.064Z,98603.88
2022-10-14T05:03:56.753Z,98604.92
2022-10-14T05:06:23.297Z,98602.20
2022-10-14T05:08:49.772Z,98602.69
2022-10-14T05:11:16.701Z,98603.17
2022-10-14T05:13:43.226Z,98608.65
2022-10-14T05:16:09.763Z,98609.52
2022-10-14T05:18:36.617Z,98610.48
2022-10-14T05:21:03.466Z,98604.72
2022-10-14T05:23:30.008Z,98606.67
2022-10-14T05:25:56.547Z,98606.58
2022-10-14T05:28:23.225Z,98608.02
2022-10-14T05:30:49.757Z,98609.38
2022-10-14T05:33:16.379Z,98610.50
2022-10-14T05:35:58.514Z,98611.75
2022-10-14T05:38:25.438Z,98608.50
2022-10-14T05:40:54.987Z,98607.56
2022-10-14T05:43:21.694Z,98603.67
2022-10-14T05:45:48.106Z,98595.67
2022-10-14T05:48:14.597Z,98596.24
2022-10-14T05:50:42.577Z,98601.13
2022-10-14T05:53:09.607Z,98597.92
2022-10-14T05:55:36.126Z,98598.07
2022-10-14T05:58:02.784Z,98596.80
2022-10-14T06:00:29.921Z,98590.97
2022-10-14T06:02:59.478Z,98592.32
2022-10-14T06:05:26.074Z,98591.70
2022-10-14T06:07:52.600Z,98590.88
2022-10-14T06:10:19.128Z,98594.52
2022-10-14T06:12:45.794Z,98596.55
2022-10-14T06:15:12.235Z,98592.14
2022-10-14T06:17:38.769Z,98589.85
2022-10-14T06:20:05.928Z,98587.81
2022-10-14T06:22:32.673Z,98586.54
2022-10-14T06:25:03.858Z,98585.04
2022-10-14T06:27:30.897Z,98588.17
2022-10-14T06:29:57.508Z,98589.81
2022-10-14T06:32:24.401Z,98591.05
2022-10-14T06:34:51.128Z,98590.58
2022-10-14T06:37:17.551Z,98593.36
2022-10-14T06:39:44.061Z,98593.44
2022-10-14T06:42:13.067Z,98591.56
2022-10-14T06:44:40.029Z,98593.66
2022-10-14T06:47:07.344Z,98593.59
2022-10-14T06:49:34.435Z,98593.36
2022-10-14T06:52:00.845Z,98588.00
2022-10-14T06:54:27.299Z,98584.89
2022-10-14T06:56:56.519Z,98584.83
2022-10-14T06:59:23.057Z,98588.59
2022-10-14T07:01:49.597Z,98586.91
2022-10-14T07:04:16.133Z,98586.34
2022-10-14T07:06:42.773Z,98583.55
2022-10-14T07:09:09.252Z,98577.42
2022-10-14T07:11:35.750Z,98574.64
2022-10-14T07:14:02.287Z,98574.00
2022-10-14T07:16:28.832Z,98575.09
2022-10-14T07:18:55.674Z,98572.11
2022-10-14T07:21:22.115Z,98570.63
2022-10-14T07:23:48.747Z,98573.22
2022-10-14T07:26:15.391Z,98572.04
2022-10-14T07:28:41.975Z,98570.89
2022-10-14T07:31:10.588Z,98568.93
2022-10-14T07:33:39.413Z,98569.71
2022-10-14T07:36:09.514Z,98566.00
2022-10-14T07:38:36.053Z,98567.55
2022-10-14T07:41:05.903Z,98561.22
2022-10-14T07:43:34.206Z,98558.14
2022-10-14T07:46:05.726Z,98555.00
2022-10-14T07:48:45.333Z,98553.96
2022-10-14T07:51:20.109Z,98547.91
2022-10-14T07:53:46.570Z,98544.98
2022-10-14T07:56:13.389Z,98544.20
2022-10-14T07:58:44.250Z,98543.36
2022-10-14T08:01:11.076Z,98541.56
2022-10-14T08:03:37.824Z,98541.02
2022-10-14T08:06:05.896Z,98539.97
2022-10-14T08:08:32.643Z,98535.41
2022-10-14T08:11:04.919Z,98531.85
2022-10-14T08:13:32.600Z,98532.50
2022-10-14T08:15:59.456Z,98530.70
2022-10-14T08:18:26.606Z,98526.95
2022-10-14T08:20:53.610Z,98521.80
2022-10-14T08:23:20.983Z,98520.08
2022-10-14T08:25:49.623Z,98522.27
2022-10-14T08:28:16.318Z,98528.27
2022-10-14T08:30:43.191Z,98532.98
2022-10-14T08:33:09.618Z,98525.94
2022-10-14T08:35:36.278Z,98525.73
2022-10-14T08:38:02.813Z,98526.29
2022-10-14T08:40:33.500Z,98527.73
2022-10-14T08:43:16.281Z,98529.70
2022-10-14T08:45:47.942Z,98530.80
2022-10-14T08:48:23.591Z,98532.02
2022-10-14T08:50:56.677Z,98523.73
2022-10-14T08:53:28.766Z,98519.44
2022-10-14T08:55:59.033Z,98511.77
2022-10-14T08:58:31.266Z,98504.88
2022-10-14T09:01:03.145Z,98502.69
2022-10-14T09:03:31.118Z,98502.27
2022-10-14T09:06:05.794Z,98502.49
2022-10-14T09:08:44.778Z,98502.71
2022-10-14T09:11:15.882Z,98497.15
2022-10-14T09:13:47.102Z,98500.14
2022-10-14T09:16:20.548Z,98498.86
2022-10-14T09:18:54.790Z,98492.65
2022-10-14T09:21:48.050Z,98493.46
2022-10-14T09:24:21.870Z,98491.78
2022-10-14T09:27:09.177Z,98495.55
2022-10-14T09:30:01.431Z,98493.90
2022-10-14T09:32:39.779Z,98497.34
2022-10-14T09:35:15.092Z,98489.66
2022-10-14T09:37:41.839Z,98483.92
2022-10-14T09:40:32.579Z,98486.78
2022-10-14T09:43:10.348Z,98484.64
2022-10-14T09:46:08.331Z,98485.34
2022-10-14T09:48:37.539Z,98484.93
2022-10-14T09:51:10.647Z,98483.60
2022-10-14T09:53:52.246Z,98482.45
2022-10-14T09:56:41.823Z,98478.16
2022-10-14T09:59:20.337Z,98475.40
2022-10-14T10:01:55.646Z,98474.33
2022-10-14T10:04:41.806Z,98470.27
2022-10-14T10:07:31.717Z,98473.61
2022-10-14T10:10:16.421Z,98466.20
2022-10-14T10:12:43.003Z,98464.83
2022-10-14T10:15:20.974Z,98465.48
2022-10-14T10:17:48.581Z,98462.05
2022-10-14T10:20:14.981Z,98455.42
2022-10-14T10:22:41.619Z,98451.07
2022-10-14T10:25:08.050Z,98449.48
2022-10-14T10:27:38.131Z,98447.34
2022-10-14T10:30:29.423Z,98442.92
2022-10-14T10:33:24.608Z,98441.15
2022-10-14T10:38:50.587Z,98432.12
2022-10-14T10:41:54.724Z,98432.27
2022-10-14T10:44:33.923Z,98427.95
2022-10-14T10:47:39.489Z,98425.80
2022-10-14T10:50:21.265Z,98421.06
2022-10-14T10:53:10.459Z,98418.06
2022-10-14T10:56:08.876Z,98419.39
2022-10-14T10:58:40.496Z,98415.37
2022-10-14T11:01:29.965Z,98411.02
2022-10-14T11:04:26.005Z,98409.05
2022-10-14T11:07:12.621Z,98407.21
2022-10-14T11:10:20.732Z,98405.42
2022-10-14T11:13:06.528Z,98407.42
2022-10-14T11:15:52.941Z,98405.02
2022-10-14T11:18:37.808Z,98406.20
2022-10-14T11:21:20.060Z,98395.70
2022-10-14T11:23:50.806Z,98394.63
2022-10-14T11:26:56.204Z,98389.80
2022-10-14T11:30:00.192Z,98390.38
2022-10-14T11:32:41.616Z,98392.64
2022-10-14T11:35:24.156Z,98389.82
2022-10-14T11:38:41.461Z,98388.73
2022-10-14T11:41:34.115Z,98384.25
2022-10-14T11:44:17.351Z,98386.52
2022-10-14T11:46:51.382Z,98379.80
2022-10-14T11:49:34.176Z,98378.02
2022-10-14T11:52:10.350Z,98381.04
2022-10-14T11:54:39.042Z,98377.63
2022-10-14T11:57:52.481Z,98375.73
2022-10-14T12:00:39.194Z,98372.88
2022-10-14T12:03:41.703Z,98367.67
2022-10-14T12:06:21.732Z,98363.27
2022-10-14T12:09:13.672Z,98353.98
2022-10-14T12:11:52.656Z,98355.86
2022-10-14T12:14:20.782Z,98356.95
2022-10-14T12:16:49.286Z,98351.85
2022-10-14T12:19:25.684Z,98351.67
2022-10-14T12:22:04.980Z,98352.91
2022-10-14T12:24:37.419Z,98351.55
2022-10-14T12:27:09.462Z,98350.52
2022-10-14T12:29:47.919Z,98345.90
2022-10-14T12:32:19.741Z,98343.55
2022-10-14T12:34:51.872Z,98342.63
2022-10-14T12:37:27.321Z,98338.45
2022-10-14T12:40:22.953Z,98339.05
2022-10-14T12:43:01.586Z,98339.70
2022-10-14T12:45:31.565Z,98338.42
2022-10-14T12:48:04.910Z,98337.33
2022-10-14T12:50:37.228Z,98334.82
2022-10-14T12:53:18.977Z,98334.36
2022-10-14T12:55:53.547Z,98329.87
2022-10-14T12:58:39.282Z,98329.52
2022-10-14T13:01:16.081Z,98326.39
2022-10-14T13:03:53.686Z,98326.83
2022-10-14T13:06:40.742Z,98326.20
2022-10-14T13:09:13.092Z,98327.33
2022-10-14T13:12:00.821Z,98330.77
2022-10-14T13:14:30.281Z,98330.70
2022-10-14T13:17:02.586Z,98325.77
2022-10-14T13:19:34.968Z,98325.52
2022-10-14T13:22:03.720Z,98326.98
2022-10-14T13:24:32.915Z,98329.20
2022-10-14T13:27:16.525Z,98328.38
2022-10-14T13:29:58.250Z,98330.76
2022-10-14T13:32:35.139Z,98328.15
2022-10-14T13:35:09.746Z,98322.27
2022-10-14T13:37:45.927Z,98315.23
2022-10-14T13:40:35.411Z,98311.75
2022-10-14T13:43:42.741Z,98313.91
2022-10-14T13:46:22.056Z,98315.55
2022-10-14T13:48:55.862Z,98316.67
2022-10-14T13:51:38.780Z,98318.36
2022-10-14T13:54:11.348Z,98317.36
2022-10-14T13:56:37.938Z,98315.33
2022-10-14T13:59:32.950Z,98315.27
2022-10-14T14:02:21.133Z,98315.77
2022-10-14T14:04:51.967Z,98314.16
2022-10-14T14:07:58.983Z,98313.60
2022-10-14T14:10:11.136Z,98315.46
2022-10-14T14:12:42.663Z,98310.35
2022-10-14T14:15:21.214Z,98312.14
2022-10-14T14:17:47.724Z,98310.84
2022-10-14T14:20:20.225Z,98309.57
2022-10-14T14:22:46.841Z,98309.73
2022-10-14T14:25:36.672Z,98313.50
2022-10-14T14:28:06.130Z,98313.61
2022-10-14T14:30:35.033Z,98312.13
2022-10-14T14:33:10.481Z,98313.71
2022-10-14T14:35:37.326Z,98313.00
2022-10-14T14:38:04.060Z,98314.48
2022-10-14T14:40:31.539Z,98316.30
2022-10-14T14:43:02.160Z,98318.83
2022-10-14T14:45:44.083Z,98316.89
2022-10-14T14:48:15.430Z,98317.27
2022-10-14T14:50:44.789Z,98319.44
2022-10-14T14:53:18.796Z,98320.29
2022-10-14T14:55:55.951Z,98318.34
2022-10-14T14:58:39.275Z,98316.43
2022-10-14T15:01:07.544Z,98319.41
2022-10-14T15:04:12.525Z,98317.66
2022-10-14T15:06:37.198Z,98314.31
2022-10-14T15:09:14.998Z,98322.55
2022-10-14T15:11:54.484Z,98322.90
2022-10-14T15:14:52.312Z,98326.50
2022-10-14T15:17:34.630Z,98326.21
2022-10-14T15:20:03.822Z,98329.45
2022-10-14T15:22:32.316Z,98330.64
2022-10-14T15:25:08.593Z,98330.02
2022-10-14T15:27:35.015Z,98327.75
2022-10-14T15:30:22.346Z,98325.23
2022-10-14T15:32:50.488Z,98331.75
2022-10-14T15:35:20.174Z,98329.02
2022-10-14T15:37:48.415Z,98331.95
2022-10-14T15:40:19.028Z,98332.10
2022-10-14T15:42:46.919Z,98329.31
2022-10-14T15:45:14.069Z,98330.21
2022-10-14T15:47:40.926Z,98331.94
2022-10-14T15:50:19.955Z,98331.21
2022-10-14T15:52:46.908Z,98329.86
2022-10-14T15:55:15.804Z,98331.88
2022-10-14T15:57:42.491Z,98331.88
2022-10-14T16:00:09.626Z,98333.14
2022-10-14T16:02:36.342Z,98335.43
2022-10-14T16:05:21.206Z,98333.85
2022-10-14T16:07:48.671Z,98335.25
2022-10-14T16:10:18.017Z,98333.45
2022-10-14T16:12:45.032Z,98338.22
2022-10-14T16:15:39.522Z,98344.57
2022-10-14T16:18:06.042Z,98348.12
2022-10-14T16:20:32.810Z,98349.40
2022-10-14T16:22:59.398Z,98351.88
2022-10-14T16:25:34.105Z,98352.30
2022-10-14T16:28:01.120Z,98352.14
2022-10-14T16:30:28.221Z,98355.98
2022-10-14T16:32:55.158Z,98359.98
2022-10-14T16:35:21.680Z,98355.92
2022-10-14T16:37:48.218Z,98355.98
2022-10-14T16:40:15.167Z,98357.45
2022-10-14T16:42:41.706Z,98359.71
2022-10-14T16:45:08.893Z,98354.40
2022-10-14T16:47:35.402Z,98353.94
2022-10-14T16:50:01.954Z,98358.91
2022-10-14T16:52:28.497Z,98358.27
2022-10-14T16:54:54.955Z,98365.18
2022-10-14T16:57:21.602Z,98361.64
2022-10-14T16:59:48.206Z,98368.30
2022-10-14T17:02:16.900Z,98376.89
2022-10-14T17:04:43.438Z,98376.49
2022-10-14T17:07:10.421Z,98380.70
2022-10-14T17:09:36.944Z,98385.34
2022-10-14T17:12:06.931Z,98387.02
2022-10-14T17:14:36.564Z,98380.94
2022-10-14T17:17:03.615Z,98387.83
2022-10-14T17:19:30.249Z,98392.09
2022-10-14T17:21:56.722Z,98391.75
2022-10-14T17:24:23.587Z,98387.40
2022-10-14T17:26:50.185Z,98383.02
2022-10-14T17:29:16.661Z,98385.59
2022-10-14T17:31:43.976Z,98386.48
2022-10-14T17:34:10.521Z,98384.79
2022-10-14T17:36:37.376Z,98379.72
2022-10-14T17:39:04.005Z,98378.19
2022-10-14T17:41:30.651Z,98376.61
2022-10-14T17:43:58.534Z,98377.98
2022-10-14T17:46:26.001Z,98378.66
2022-10-14T17:48:54.748Z,98378.86
2022-10-14T17:51:21.211Z,98377.91
2022-10-14T17:53:47.602Z,98377.35
2022-10-14T17:56:14.203Z,98376.05
2022-10-14T17:58:40.708Z,98374.13
2022-10-14T18:01:09.864Z,98375.84
2022-10-14T18:03:39.557Z,98379.69
2022-10-14T18:06:20.966Z,98383.65
2022-10-14T18:08:51.533Z,98387.06
2022-10-14T18:11:19.355Z,98384.09
2022-10-14T18:13:53.107Z,98386.31
2022-10-14T18:16:19.542Z,98382.88
2022-10-14T18:18:45.959Z,98388.09
2022-10-14T18:21:12.391Z,98389.60
2022-10-14T18:23:40.666Z,98387.42
2022-10-14T18:26:15.494Z,98391.49
2022-10-14T18:28:44.450Z,98388.84
2022-10-14T18:31:16.323Z,98393.70
2022-10-14T18:33:43.618Z,98394.14
2022-10-14T18:36:13.156Z,98390.21
2022-10-14T18:38:40.442Z,98394.16
2022-10-14T18:41:10.933Z,98396.48
2022-10-14T18:43:37.770Z,98403.95
2022-10-14T18:46:04.230Z,98404.36
2022-10-14T18:48:31.063Z,98406.37
2022-10-14T18:51:01.673Z,98410.82
2022-10-14T18:53:29.573Z,98413.57
2022-10-14T18:55:58.145Z,98411.05
2022-10-14T18:58:27.513Z,98412.36
2022-10-14T19:00:54.022Z,98411.52
2022-10-14T19:03:20.444Z,98407.27
2022-10-14T19:05:46.979Z,98403.63
2022-10-14T19:10:45.178Z,98402.08
2022-10-14T19:13:11.617Z,98403.29
2022-10-14T19:15:43.206Z,98399.30
2022-10-14T19:18:11.864Z,98401.01
2022-10-14T19:20:38.811Z,98402.89
2022-10-14T19:23:05.251Z,98402.10
2022-10-14T19:25:31.701Z,98401.64
2022-10-14T19:27:58.529Z,98398.34
2022-10-14T19:30:25.589Z,98396.95
2022-10-14T19:32:52.047Z,98398.40
2022-10-14T19:37:49.925Z,98396.45
2022-10-14T19:40:19.864Z,98398.61
2022-10-14T19:42:49.468Z,98397.40
2022-10-14T19:45:16.006Z,98396.56
2022-10-14T19:47:42.650Z,98395.69
2022-10-14T19:50:10.045Z,98396.88
2022-10-14T19:52:36.551Z,98393.01
2022-10-14T19:55:03.908Z,98391.06
2022-10-14T19:57:30.347Z,98387.52
2022-10-14T19:59:56.888Z,98385.65
2022-10-14T20:02:23.299Z,98384.52
2022-10-14T20:04:49.766Z,98387.06
2022-10-14T20:07:16.288Z,98391.50
2022-10-14T20:09:42.751Z,98390.89
2022-10-14T20:12:09.177Z,98388.13
2022-10-14T20:14:35.626Z,98384.95
2022-10-14T20:17:02.166Z,98385.27
2022-10-14T20:19:28.709Z,98380.93
2022-10-14T20:21:55.147Z,98377.31
2022-10-14T20:24:21.689Z,98378.31
2022-10-14T20:26:48.143Z,98373.32
2022-10-14T20:29:14.646Z,98371.86
2022-10-14T20:31:41.109Z,98368.80
2022-10-14T20:34:11.156Z,98368.30
2022-10-14T20:36:37.980Z,98366.23
2022-10-14T20:39:04.628Z,98369.16
2022-10-14T20:41:31.192Z,98373.46
2022-10-14T20:43:57.701Z,98374.32
2022-10-14T20:46:24.415Z,98378.02
2022-10-14T20:48:56.021Z,98377.98
2022-10-14T20:51:22.900Z,98379.93
2022-10-14T20:53:49.599Z,98381.48
2022-10-14T20:56:16.342Z,98379.23
2022-10-14T20:58:43.088Z,98382.85
2022-10-14T21:01:17.067Z,98383.16
2022-10-14T21:03:45.809Z,98383.27
2022-10-14T21:06:15.832Z,98379.30
2022-10-14T21:08:42.678Z,98372.35
2022-10-14T21:11:15.412Z,98371.23
2022-10-14T21:13:51.371Z,98377.73
2022-10-14T21:16:21.696Z,98374.78
2022-10-14T21:18:53.692Z,98369.04
2022-10-14T21:21:26.332Z,98372.75
2022-10-14T21:23:52.845Z,98367.86
2022-10-14T21:26:19.488Z,98366.06
2022-10-14T21:28:46.090Z,98362.98
2022-10-14T21:31:17.354Z,98362.80
2022-10-14T21:33:45.924Z,98355.61
2022-10-14T21:36:14.277Z,98352.58
2022-10-14T21:38:41.454Z,98352.32
2022-10-14T21:41:08.614Z,98352.08
2022-10-14T21:43:36.866Z,98354.83
2022-10-14T21:46:12.226Z,98349.66
2022-10-14T21:48:40.178Z,98354.68
2022-10-14T21:51:15.865Z,98355.57
2022-10-14T21:53:44.114Z,98348.98
2022-10-14T21:56:11.877Z,98345.67
2022-10-14T21:58:38.567Z,98346.04
2022-10-14T22:01:19.082Z,98342.64
2022-10-14T22:03:45.632Z,98342.54
2022-10-14T22:06:16.688Z,98350.61
2022-10-14T22:08:46.154Z,98343.02
2022-10-14T22:11:37.224Z,98343.36
2022-10-14T22:14:05.574Z,98342.71
2022-10-14T22:16:32.855Z,98341.59
2022-10-14T22:19:00.944Z,98340.40
2022-10-14T22:21:29.150Z,98345.27
2022-10-14T22:23:56.061Z,98340.11
2022-10-14T22:26:24.450Z,98335.66
2022-10-14T22:28:58.460Z,98339.75
2022-10-14T22:31:25.627Z,98338.73
2022-10-14T22:33:52.295Z,98337.60
2022-10-14T22:36:23.914Z,98335.44
2022-10-14T22:38:52.960Z,98334.23
2022-10-14T22:41:20.832Z,98339.23
2022-10-14T22:43:49.543Z,98336.06
2022-10-14T22:46:17.922Z,98338.70
2022-10-14T22:48:44.412Z,98336.84
2022-10-14T22:51:16.728Z,98335.42
2022-10-14T22:53:44.893Z,98337.00
2022-10-14T22:56:14.843Z,98337.47
2022-10-14T22:58:41.540Z,98340.16
2022-10-14T23:01:16.992Z,98335.05
2022-10-14T23:03:43.841Z,98335.63
2022-10-14T23:06:12.887Z,98335.54
2022-10-14T23:08:40.303Z,98332.02
2022-10-14T23:11:07.770Z,98336.63
2022-10-14T23:13:34.263Z,98332.75
2022-10-14T23:16:03.414Z,98337.53
2022-10-14T23:18:32.483Z,98341.86
2022-10-14T23:20:59.153Z,98347.08
2022-10-14T23:23:25.592Z,98347.09
2022-10-14T23:25:52.065Z,98343.48
2022-10-14T23:28:18.604Z,98345.23
2022-10-14T23:30:45.049Z,98344.48
2022-10-14T23:33:11.660Z,98342.69
2022-10-14T23:35:38.653Z,98342.81
2022-10-14T23:38:05.406Z,98345.03
2022-10-14T23:40:31.978Z,98343.31
2022-10-14T23:42:58.551Z,98345.03
2022-10-14T23:45:28.776Z,98342.98
2022-10-14T23:47:55.316Z,98342.64
2022-10-14T23:50:21.855Z,98340.55
2022-10-14T23:52:48.388Z,98340.91
2022-10-14T23:55:14.942Z,98336.30
2022-10-14T23:57:41.498Z,98335.52
